Saturday, January 19, 2019, 8:46 PM EST
Back to Local

KMPV, Knapp State Airport

Location: Barre, VT, United States Lat: 44.2
Local Time: 8:46 PM EST ( 1:46 GMT) Lon: -72.567
Time Zone: US/Eastern Elev: 1164 ft

Show me the last for .
Show Decoded

2019-01-19 20:08 METAR KMPV 200108Z AUTO 00000KT 1 3/4SM -SN BR OVC020 M14/M16 A3021 RMK AO2
                 P0000 T11441156 =
2019-01-19 19:51 METAR KMPV 200051Z AUTO 00000KT 1 1/4SM -SN BR OVC015 M14/M16 A3022 RMK AO2
                 SLP263 P0002 T11441161 =
2019-01-19 19:33 METAR KMPV 200033Z AUTO 00000KT 1 1/4SM -SN BR OVC017 M14/M16 A3022 RMK AO2
                 P0001 T11441156 =
2019-01-19 19:08 METAR KMPV 200008Z AUTO 00000KT 1 1/2SM -SN BR OVC021 M14/M16 A3022 RMK AO2
                 P0000 T11441156 =
2019-01-19 18:59 METAR KMPV 192359Z AUTO 00000KT 2SM -SN BR OVC023 M14/M16 A3022 RMK AO2 P0000
                 T11441156 =
2019-01-19 18:51 METAR KMPV 192351Z AUTO 00000KT 1 3/4SM -SN BR OVC023 M14/M16 A3022 RMK AO2
                 SLP264 P0001 60008 T11441156 11139 21144 58017 =
2019-01-19 18:34 METAR KMPV 192334Z AUTO 32003KT 1 3/4SM -SN BR OVC025 M14/M16 A3022 RMK AO2
                 P0000 T11441161 =
2019-01-19 18:20 METAR KMPV 192320Z AUTO 00000KT 2 1/2SM -SN BR OVC027 M14/M16 A3022 RMK AO2
                 P0000 T11441156 =
2019-01-19 17:48 METAR KMPV 192248Z AUTO 34003KT 1 1/2SM -SN BR OVC017 M14/M16 A3023 RMK AO2
                 SLP268 P0003 T11441156 =
2019-01-19 17:47 METAR KMPV 192247Z AUTO 33003KT 1 1/2SM -SN BR OVC017 M14/M16 A3023 RMK AO2
                 P0003 =
2019-01-19 17:08 METAR KMPV 192208Z AUTO 00000KT 1SM -SN BR VV013 M14/M16 A3026 RMK AO2 P0001
                 T11441156 =
2019-01-19 16:51 METAR KMPV 192151Z AUTO 01003KT 1 1/4SM -SN BR OVC014 M14/M16 A3026 RMK AO2
                 SLP278 P0001 T11441156 =
2019-01-19 16:29 METAR KMPV 192129Z AUTO 00000KT 1 1/4SM -SN BR OVC015 M14/M16 A3026 RMK AO2
                 P0001 T11441156 =
2019-01-19 15:51 METAR KMPV 192051Z AUTO 05003KT 3/4SM -SN BR VV015 M14/M16 A3027 RMK AO2 SLP279
                 P0002 60003 T11441156 53001 =
2019-01-19 15:29 METAR KMPV 192029Z AUTO 00000KT 1SM -SN BR VV015 M14/M16 A3028 RMK AO2 P0001
                 T11441161 =
2019-01-19 15:08 METAR KMPV 192008Z AUTO 00000KT 3/4SM -SN BR VV013 M14/M16 A3028 RMK AO2 P0000
                 T11441161 =
2019-01-19 14:57 METAR KMPV 191957Z AUTO 00000KT 3/4SM -SN BR VV016 M14/M17 A3028 RMK AO2 P0000
                 T11441167 =
2019-01-19 14:51 METAR KMPV 191951Z AUTO 00000KT 1 1/4SM -SN BR OVC019 M14/M17 A3027 RMK AO2
                 SNB09 SLP278 P0001 T11441167 =
2019-01-19 14:36 METAR KMPV 191936Z AUTO 00000KT 1SM -SN VV020 M14/M17 A3027 RMK AO2 SNB09 P0000
                 T11391172 =
2019-01-19 14:29 METAR KMPV 191929Z AUTO 00000KT 1 1/2SM -SN OVC022 M14/M18 A3026 RMK AO2 SNB09
                 P0000 T11391178 =
2019-01-19 14:15 METAR KMPV 191915Z AUTO 00000KT 2 1/2SM -SN BKN028 OVC040 M14/M19 A3026 RMK AO2
                 SNB09 P0000 T11441189 =
2019-01-19 13:51 METAR KMPV 191851Z AUTO 05004KT 10SM FEW045 OVC055 M14/M19 A3025 RMK AO2 SLP270
                 T11391194 =
2019-01-19 12:51 METAR KMPV 191751Z AUTO 05003KT 10SM OVC060 M14/M19 A3027 RMK AO2 SLP277
                 T11441189 11144 21161 58025 =
2019-01-19 11:51 METAR KMPV 191651Z AUTO 05005KT 10SM OVC085 M14/M19 A3031 RMK AO2 SLP293
                 T11441189 =
2019-01-19 10:51 METAR KMPV 191551Z AUTO 05003KT 10SM OVC090 M15/M19 A3035 RMK AO2 SLP304
                 T11501189 =
2019-01-19 09:51 METAR KMPV 191451Z AUTO 03004KT 10SM OVC100 M16/M19 A3034 RMK AO2 SLP303
                 T11561189 51021 =
2019-01-19 08:51 METAR KMPV 191351Z AUTO 35006KT 10SM OVC100 M16/M19 A3033 RMK AO2 SLP297
                 T11561189 =
2019-01-19 07:51 METAR KMPV 191251Z AUTO 02005KT 10SM FEW017 OVC037 M15/M17 A3031 RMK AO2 SLP288
                 T11501172 =
2019-01-19 07:44 METAR KMPV 191244Z AUTO 00000KT 10SM FEW017 OVC038 M16/M18 A3030 RMK AO2
                 T11561178 =
2019-01-19 07:11 METAR KMPV 191211Z AUTO 00000KT 10SM BKN016 M16/M18 A3029 RMK AO2 T11561178 =
2019-01-19 06:51 METAR KMPV 191151Z AUTO 03003KT 10SM FEW015 FEW039 M16/M18 A3028 RMK AO2 SLP280
                 60000 70001 T11561178 11083 21156 53020 =
2019-01-19 05:51 METAR KMPV 191051Z AUTO 36005KT 10SM FEW041 M14/M16 A3026 RMK AO2 SLP270
                 T11441161 =
2019-01-19 05:06 METAR KMPV 191006Z AUTO 33006KT 10SM FEW015 M14/M17 A3023 RMK AO2 T11441167 =
2019-01-19 04:51 METAR KMPV 190951Z AUTO 36003KT 10SM BKN017 M13/M15 A3023 RMK AO2 SNE0856 SLP262
                 P0000 T11331150 =
2019-01-19 04:04 METAR KMPV 190904Z AUTO 00000KT 10SM OVC017 M12/M14 A3022 RMK AO2 SNE0856 P0000
                 T11171144 =
2019-01-19 03:51 METAR KMPV 190851Z AUTO 01006KT 7SM -SN BKN013 OVC019 M12/M14 A3022 RMK AO2
                 SLP257 P0000 60000 T11171144 53023 =
2019-01-19 03:44 METAR KMPV 190844Z AUTO 01007KT 4SM -SN OVC013 M11/M14 A3022 RMK AO2 P0000
                 T11111139 =
2019-01-19 03:03 METAR KMPV 190803Z AUTO 33008KT 2 1/2SM -SN BR BKN013 BKN027 OVC039 M10/M12
                 A3019 RMK AO2 P0000 T11001117 =
2019-01-19 02:51 METAR KMPV 190751Z AUTO 34009KT 6SM -SN BR FEW015 BKN029 OVC038 M09/M12 A3019
                 RMK AO2 SNE08B47 SLP245 P0000 T10941117 =
2019-01-19 01:51 METAR KMPV 190651Z AUTO 33004KT 8SM -SN SCT024 BKN028 OVC039 M09/M11 A3017 RMK
                 AO2 SLP239 P0000 T10941111 =
2019-01-19 00:51 METAR KMPV 190551Z AUTO 01003KT 7SM -SN BKN015 BKN020 OVC041 M08/M09 A3015 RMK
                 AO2 SLP232 P0000 60000 T10831094 11033 21083 51017 =
2019-01-19 00:30 METAR KMPV 190530Z AUTO 34003KT 7SM -SN OVC013 M08/M09 A3015 RMK AO2 P0000
                 T10831089 =
2019-01-19 00:21 METAR KMPV 190521Z AUTO 00000KT 6SM -SN BR SCT011 BKN018 OVC046 M08/M09 A3015
                 RMK AO2 P0000 T10831094 =
2019-01-18 23:51 METAR KMPV 190451Z AUTO 00000KT 5SM -SN BR SCT032 OVC046 M08/M09 A3013 RMK AO2
                 SLP226 P0000 T10781089 410221133 =
2019-01-18 22:51 METAR KMPV 190351Z AUTO 35006KT 5SM -SN BR FEW015 BKN039 OVC048 M07/M09 A3012
                 RMK AO2 SNB09 SLP221 P0000 T10721089 =
2019-01-18 22:36 METAR KMPV 190336Z AUTO 35006KT 6SM -SN BR SCT015 BKN031 OVC048 M07/M09 A3012
                 RMK AO2 SNB09 P0000 T10671089 =
2019-01-18 22:26 METAR KMPV 190326Z AUTO 33007KT 5SM -SN BR BKN016 BKN035 OVC048 M07/M08 A3011
                 RMK AO2 SNB09 P0000 T10671083 =
2019-01-18 21:51 METAR KMPV 190251Z AUTO 33008KT 10SM OVC050 M05/M08 A3010 RMK AO2 SLP213 60000
                 T10501078 53025 =
2019-01-18 20:51 METAR KMPV 190151Z AUTO 31009KT 10SM SCT035 OVC050 M04/M07 A3007 RMK AO2 SNE0056
                 SLP201 P0000 T10391067 =

Support USWX by starting your Amazon purchase here.